Time;durP1;ratioP1;P1;durP2;ratioP2;P2;SDS_P1;SDS_P2;PMS_P1;PMS_P2;Temp;Humidity;BMP_temperature;BMP_pressure;BME280_temperature;BME280_humidity;BME280_pressure;Samples;Min_cycle;Max_cycle;Signal;HPM_P1;HPM_P2
2021/07/19 00:00:20;;;;;;;;;0.00;0.00;;;;;29.41;59.52;98305.91;6214858;23;8819;-68
2021/07/19 00:02:54;;;;;;;;;0.80;0.80;;;;;29.41;59.54;98312.13;6214738;23;8819;-68
2021/07/19 00:05:25;;;;;;;;;0.20;0.20;;;;;29.40;59.65;98307.84;6214892;23;8795;-68
2021/07/19 00:07:54;;;;;;;;;0.00;0.00;;;;;29.35;59.79;98296.66;6215065;23;9527;-68
2021/07/19 00:10:23;;;;;;;;;0.00;0.00;;;;;29.43;59.60;98312.50;6214791;23;8861;-68
2021/07/19 00:12:52;;;;;;;;;1.00;1.00;;;;;29.44;59.39;98311.34;6214763;23;8796;-68
2021/07/19 00:15:26;;;;;;;;;0.40;0.40;;;;;29.40;59.55;98312.50;6215016;23;8803;-68
2021/07/19 00:17:56;;;;;;;;;0.80;0.80;;;;;29.48;59.30;98314.03;6214712;23;8894;-68
2021/07/19 00:20:26;;;;;;;;;0.60;0.60;;;;;29.50;59.56;98317.09;6214662;23;8810;-68
2021/07/19 00:22:54;;;;;;;;;0.00;0.00;;;;;29.51;59.17;98313.22;6213210;23;8845;-68
2021/07/19 00:25:24;;;;;;;;;0.00;0.00;;;;;29.52;59.13;98322.91;6214502;23;8933;-68
2021/07/19 00:27:55;;;;;;;;;0.00;0.00;;;;;29.48;59.36;98312.06;6214858;23;8795;-68
2021/07/19 00:30:24;;;;;;;;;0.00;0.00;;;;;29.57;59.15;98322.47;6214714;23;8799;-68
2021/07/19 00:32:53;;;;;;;;;0.00;0.00;;;;;29.59;59.13;98331.00;6214595;23;8787;-68
2021/07/19 00:35:22;;;;;;;;;0.80;0.80;;;;;29.59;59.34;98320.13;6214611;23;8819;-68
2021/07/19 00:37:50;;;;;;;;;1.00;1.00;;;;;29.51;59.05;98308.56;6214611;23;8803;-68
2021/07/19 00:40:25;;;;;;;;;0.00;0.00;;;;;29.66;59.26;98328.22;6214510;23;8893;-68
2021/07/19 00:42:54;;;;;;;;;0.20;0.20;;;;;29.70;59.31;98339.03;6213970;23;9665;-67
2021/07/19 00:45:26;;;;;;;;;0.80;0.80;;;;;29.72;58.80;98332.03;6213045;23;8799;-68
2021/07/19 00:47:57;;;;;;;;;0.00;0.00;;;;;29.73;58.89;98332.81;6214420;23;8779;-73
2021/07/19 00:50:27;;;;;;;;;0.60;0.60;;;;;29.83;59.05;98332.69;6215896;23;8803;-69
2021/07/19 00:52:58;;;;;;;;;0.60;0.60;;;;;29.78;58.46;98322.25;6215636;23;8876;-73
2021/07/19 00:55:36;;;;;;;;;0.00;0.00;;;;;29.93;58.35;98339.16;6213879;23;8795;-68
2021/07/19 00:58:06;;;;;;;;;0.00;0.00;;;;;29.98;58.49;98335.22;6212659;23;8807;-72
2021/07/19 01:00:40;;;;;;;;;0.60;0.60;;;;;30.02;58.56;98338.72;6212831;23;8854;-74
2021/07/19 01:03:10;;;;;;;;;0.80;0.80;;;;;30.06;58.04;98348.38;6212912;23;8783;-71
2021/07/19 01:05:42;;;;;;;;;0.40;0.40;;;;;30.09;58.41;98341.34;6214700;23;8818;-70
2021/07/19 01:08:11;;;;;;;;;2.00;2.00;;;;;30.05;58.05;98346.81;6215930;23;8795;-71
2021/07/19 01:10:40;;;;;;;;;0.00;0.00;;;;;30.14;57.76;98358.00;6216719;23;8819;-71
2021/07/19 01:13:09;;;;;;;;;0.40;0.40;;;;;30.10;58.06;98351.81;6212855;23;8879;-72
2021/07/19 01:15:39;;;;;;;;;0.00;0.00;;;;;30.15;58.13;98361.47;6213976;23;8816;-72
2021/07/19 01:18:11;;;;;;;;;0.20;0.20;;;;;30.17;57.63;98364.56;6214750;23;8884;-71
2021/07/19 01:21:08;;;;;;;;;0.00;0.00;;;;;30.20;57.94;98371.91;6215014;23;8886;-72
2021/07/19 01:24:06;;;;;;;;;1.00;1.00;;;;;30.17;57.38;98370.00;6215050;23;8811;-71
2021/07/19 01:26:48;;;;;;;;;0.00;0.00;;;;;30.24;57.83;98371.88;6213908;23;8803;-70
2021/07/19 01:29:19;;;;;;;;;0.80;0.80;;;;;30.22;57.58;98377.72;6214223;23;8873;-70
2021/07/19 01:31:50;;;;;;;;;0.00;0.00;;;;;30.27;57.27;98374.56;6214383;23;8803;-71
2021/07/19 01:34:23;;;;;;;;;0.00;0.00;;;;;30.22;57.57;98366.06;6214333;23;8811;-69
2021/07/19 01:36:58;;;;;;;;;0.80;0.80;;;;;30.22;57.31;98366.84;6214623;23;8807;-70
2021/07/19 01:39:29;;;;;;;;;0.20;0.20;;;;;30.29;57.20;98372.19;6213781;23;8806;-70
2021/07/19 01:41:59;;;;;;;;;0.00;0.00;;;;;30.22;57.36;98358.69;6214068;23;8885;-70
2021/07/19 01:44:29;;;;;;;;;0.00;0.00;;;;;30.29;57.10;98374.91;6214773;23;9567;-70
2021/07/19 01:47:00;;;;;;;;;0.00;0.00;;;;;30.24;57.37;98375.38;6214914;23;8869;-70
2021/07/19 01:49:30;;;;;;;;;0.00;0.00;;;;;30.19;57.33;98373.09;6215561;23;8822;-69
2021/07/19 01:51:59;;;;;;;;;0.00;0.00;;;;;30.21;57.38;98376.19;6215558;23;8788;-70
2021/07/19 01:54:29;;;;;;;;;0.80;0.80;;;;;30.24;57.31;98369.94;6215830;23;8791;-70
2021/07/19 01:57:00;;;;;;;;;0.80;0.80;;;;;30.19;57.28;98362.22;6215539;23;8865;-70
2021/07/19 01:59:30;;;;;;;;;0.00;0.00;;;;;30.34;57.20;98373.69;6215721;23;9258;-70
2021/07/19 02:01:59;;;;;;;;;0.80;0.80;;;;;30.39;57.36;98376.75;6215670;23;8803;-70
2021/07/19 02:04:28;;;;;;;;;1.20;1.20;;;;;30.37;57.31;98360.03;6215976;23;9510;-70
2021/07/19 02:06:57;;;;;;;;;0.00;0.00;;;;;30.47;57.26;98375.47;6215834;23;8788;-70
2021/07/19 02:09:27;;;;;;;;;0.00;0.00;;;;;30.50;56.89;98380.09;6215793;23;8799;-70
2021/07/19 02:11:59;;;;;;;;;0.00;0.00;;;;;30.54;56.80;98377.34;6215741;23;8779;-70
2021/07/19 02:14:29;;;;;;;;;0.80;0.80;;;;;30.36;56.68;98344.13;6215518;23;8803;-70
2021/07/19 02:17:00;;;;;;;;;1.00;1.00;;;;;30.64;57.06;98381.13;6214675;23;8806;-70
2021/07/19 02:19:30;;;;;;;;;1.00;1.00;;;;;30.70;56.55;98388.44;6215459;23;8791;-70
2021/07/19 02:22:00;;;;;;;;;0.00;0.00;;;;;30.74;56.74;98380.97;6214793;23;8857;-70
2021/07/19 02:24:30;;;;;;;;;0.00;0.00;;;;;30.78;56.78;98381.69;6214283;23;8795;-74
2021/07/19 02:26:59;;;;;;;;;0.20;0.20;;;;;30.60;56.37;98347.72;6212254;23;8811;-71
2021/07/19 02:29:50;;;;;;;;;0.00;0.00;;;;;30.82;56.66;98384.38;6214391;23;8786;-72
2021/07/19 02:32:21;;;;;;;;;1.00;1.00;;;;;30.83;56.41;98381.25;6214344;23;8819;-70
2021/07/19 02:34:50;;;;;;;;;0.00;0.00;;;;;30.85;56.63;98380.06;6213283;23;8807;-70
2021/07/19 02:37:20;;;;;;;;;0.00;0.00;;;;;30.77;56.50;98369.28;6212695;23;8811;-70
2021/07/19 02:39:51;;;;;;;;;1.00;1.00;;;;;30.86;56.16;98385.09;6212221;23;8799;-73
2021/07/19 02:42:20;;;;;;;;;0.00;0.00;;;;;30.86;56.06;98379.66;6212028;23;8838;-77
2021/07/19 02:44:49;;;;;;;;;0.00;0.00;;;;;30.84;56.33;98384.75;6213380;23;8807;-75
2021/07/19 02:47:19;;;;;;;;;0.00;0.00;;;;;30.80;56.31;98381.28;6213651;23;8795;-72
2021/07/19 02:49:48;;;;;;;;;0.00;0.00;;;;;30.84;55.94;98390.19;6215058;23;8805;-69
2021/07/19 02:52:21;;;;;;;;;0.00;0.00;;;;;30.85;55.36;98383.56;6214551;23;8799;-72
2021/07/19 02:54:52;;;;;;;;;0.00;0.00;;;;;30.80;55.80;98373.91;6214598;23;8892;-73
2021/07/19 02:57:21;;;;;;;;;0.00;0.00;;;;;30.84;55.88;98379.28;6214431;23;9571;-73
2021/07/19 02:59:50;;;;;;;;;0.60;0.60;;;;;30.76;55.92;98381.34;6214473;23;8866;-70
2021/07/19 03:02:23;;;;;;;;;0.00;0.00;;;;;30.71;55.41;98378.31;6213594;23;9617;-69
2021/07/19 03:04:56;;;;;;;;;0.00;0.00;;;;;30.63;55.85;98363.25;6211921;23;8814;-71
2021/07/19 03:07:28;;;;;;;;;0.00;0.00;;;;;30.67;55.89;98372.91;6213467;23;8791;-72
2021/07/19 03:10:02;;;;;;;;;0.00;0.00;;;;;30.60;55.10;98370.28;6213370;23;9594;-73
2021/07/19 03:12:35;;;;;;;;;0.00;0.00;;;;;30.64;56.09;98373.72;6213528;23;8833;-72
2021/07/19 03:15:06;;;;;;;;;0.80;0.80;;;;;30.61;55.73;98362.88;6212767;23;8823;-71
2021/07/19 03:17:38;;;;;;;;;0.00;0.00;;;;;30.68;55.52;98373.69;6213568;23;8884;-70
2021/07/19 03:20:09;;;;;;;;;0.00;0.00;;;;;30.69;55.58;98370.53;6212708;23;8894;-72
2021/07/19 03:22:39;;;;;;;;;0.60;0.60;;;;;30.70;55.80;98365.88;6213377;23;8799;-72
2021/07/19 03:25:11;;;;;;;;;0.60;0.60;;;;;30.71;55.17;98368.19;6214929;23;8815;-71
2021/07/19 03:27:41;;;;;;;;;0.00;0.00;;;;;30.62;55.23;98353.53;6213539;23;8799;-74
2021/07/19 03:30:12;;;;;;;;;0.00;0.00;;;;;30.74;54.79;98372.03;6214781;23;8831;-69
2021/07/19 03:32:44;;;;;;;;;0.40;0.40;;;;;30.75;54.80;98381.75;6213187;23;8878;-71
2021/07/19 03:35:17;;;;;;;;;0.00;0.00;;;;;30.76;54.70;98375.13;6213763;23;8787;-75
2021/07/19 03:37:48;;;;;;;;;1.00;1.00;;;;;30.62;54.14;98348.09;6211518;23;8826;-77
2021/07/19 03:40:23;;;;;;;;;0.00;0.00;;;;;30.81;55.35;98377.38;6212251;23;8807;-76
2021/07/19 03:43:00;;;;;;;;;0.00;0.00;;;;;30.70;55.22;98355.75;6211460;23;8818;-72
2021/07/19 03:45:30;;;;;;;;;0.00;0.00;;;;;30.87;54.79;98373.03;6211271;23;8803;-73
2021/07/19 03:48:25;;;;;;;;;0.00;0.00;;;;;30.67;55.62;98347.63;6211827;23;8735;-72
2021/07/19 03:50:55;;;;;;;;;0.00;0.00;;;;;30.77;55.44;98354.88;6211307;23;8821;-72
2021/07/19 03:53:25;;;;;;;;;0.00;0.00;;;;;30.96;53.62;98377.97;6210579;23;8900;-71
2021/07/19 03:55:55;;;;;;;;;0.00;0.00;;;;;31.10;53.55;98386.69;6212623;23;8814;-70
2021/07/19 03:58:25;;;;;;;;;0.00;0.00;;;;;31.14;52.20;98381.97;6213094;23;8799;-79
2021/07/19 04:00:54;;;;;;;;;0.00;0.00;;;;;31.23;53.11;98378.72;6212752;23;9583;-71
2021/07/19 04:03:29;;;;;;;;;0.00;0.00;;;;;31.20;54.09;98371.38;6212656;23;8799;-70
2021/07/19 04:06:00;;;;;;;;;0.60;0.60;;;;;31.32;53.76;98375.47;6212312;23;8802;-72
2021/07/19 04:08:34;;;;;;;;;0.00;0.00;;;;;31.40;53.02;98383.09;6212223;23;8799;-72
2021/07/19 04:11:07;;;;;;;;;0.00;0.00;;;;;31.41;52.89;98386.59;6212091;23;8869;-78
2021/07/19 04:13:38;;;;;;;;;0.00;0.00;;;;;31.40;53.54;98371.44;6212822;23;8869;-73
2021/07/19 04:16:07;;;;;;;;;0.00;0.00;;;;;31.49;52.88;98385.31;6212920;23;8806;-74
2021/07/19 04:18:38;;;;;;;;;0.00;0.00;;;;;31.57;53.69;98375.81;6212735;23;8803;-74
2021/07/19 04:21:10;;;;;;;;;0.00;0.00;;;;;31.60;53.69;98380.44;6213296;23;8795;-75
2021/07/19 04:23:43;;;;;;;;;0.00;0.00;;;;;31.56;52.99;98368.81;6214171;23;8822;-73
2021/07/19 04:26:14;;;;;;;;;0.00;0.00;;;;;31.69;52.58;98375.25;6213613;23;8897;-69
2021/07/19 04:28:44;;;;;;;;;0.00;0.00;;;;;31.75;52.43;98373.56;6187444;23;8795;-71
2021/07/19 04:31:19;;;;;;;;;0.00;0.00;;;;;31.79;52.34;98373.50;6213282;23;8823;-71
2021/07/19 04:33:49;;;;;;;;;0.00;0.00;;;;;31.84;52.16;98370.31;6212421;23;8803;-80
2021/07/19 04:36:19;;;;;;;;;0.00;0.00;;;;;31.83;53.22;98352.41;6212581;23;8795;-73
2021/07/19 04:38:48;;;;;;;;;0.00;0.00;;;;;31.98;52.61;98363.81;6212098;23;8807;-70
2021/07/19 04:41:19;;;;;;;;;0.00;0.00;;;;;32.03;52.54;98358.63;6212005;23;8833;-70
2021/07/19 04:43:48;;;;;;;;;0.00;0.00;;;;;32.03;52.64;98352.41;6212105;23;8807;-80
2021/07/19 04:46:17;;;;;;;;;0.00;0.00;;;;;32.15;51.87;98357.22;6212883;23;8787;-74
2021/07/19 04:48:46;;;;;;;;;0.00;0.00;;;;;32.24;53.03;98353.97;6213631;23;8828;-75
2021/07/19 04:51:15;;;;;;;;;0.00;0.00;;;;;32.15;51.75;98332.69;6212679;23;8849;-76
2021/07/19 04:53:48;;;;;;;;;0.00;0.00;;;;;32.25;52.20;98330.94;6211589;23;8798;-74
2021/07/19 04:56:22;;;;;;;;;0.00;0.00;;;;;32.44;52.08;98343.81;6212349;23;9588;-77
2021/07/19 04:58:55;;;;;;;;;0.00;0.00;;;;;32.57;51.97;98341.94;6211691;23;8827;-79
2021/07/19 05:01:27;;;;;;;;;0.00;0.00;;;;;32.70;51.46;98342.03;6211771;23;8803;-75
2021/07/19 05:03:58;;;;;;;;;0.00;0.00;;;;;32.78;51.39;98334.47;6211331;23;8877;-75
2021/07/19 05:06:29;;;;;;;;;0.00;0.00;;;;;32.92;51.21;98334.94;6212877;23;8803;-78
2021/07/19 05:09:00;;;;;;;;;0.00;0.00;;;;;33.00;50.47;98330.81;6213959;23;8799;-72
2021/07/19 05:11:43;;;;;;;;;0.00;0.00;;;;;33.09;50.88;98322.03;6206935;23;8823;-80
2021/07/19 05:14:16;;;;;;;;;0.00;0.00;;;;;33.00;50.68;98291.81;6213604;23;8799;-79
2021/07/19 05:16:45;;;;;;;;;0.00;0.00;;;;;33.10;50.64;98298.19;6213918;23;8814;-79
2021/07/19 05:19:18;;;;;;;;;0.00;0.00;;;;;33.28;50.35;98304.00;6213941;23;8799;-80
2021/07/19 05:22:32;;;;;;;;;0.00;0.00;;;;;33.37;50.57;98295.97;6232172;22;8855;-75
2021/07/19 05:25:10;;;;;;;;;0.00;0.00;;;;;32.99;50.15;98239.13;6244582;22;9627;-77
2021/07/19 05:28:13;;;;;;;;;0.00;0.00;;;;;33.58;49.44;98280.97;6245794;22;8800;-73
2021/07/19 05:34:26;;;;;;;;;0.00;0.00;;;;;33.20;50.84;98224.13;6243276;23;8737;-77
2021/07/19 05:37:19;;;;;;;;;0.00;0.00;;;;;33.72;49.54;98292.28;6243246;23;9637;-78
2021/07/19 05:40:07;;;;;;;;;0.00;0.00;;;;;33.16;50.17;98206.31;6241114;23;8915;-78
2021/07/19 05:42:41;;;;;;;;;0.00;0.00;;;;;33.77;49.22;98285.53;6242900;23;8878;-72
2021/07/19 05:45:11;;;;;;;;;0.00;0.00;;;;;33.78;49.43;98283.56;6241689;23;8894;-73
2021/07/19 05:47:40;;;;;;;;;0.00;0.00;;;;;33.75;49.36;98279.72;6241077;23;8812;-70
2021/07/19 05:50:10;;;;;;;;;0.00;0.00;;;;;33.71;49.02;98268.13;6242405;23;8825;-72
2021/07/19 05:52:39;;;;;;;;;0.00;0.00;;;;;33.70;50.11;98270.09;6244262;23;8797;-70
2021/07/19 05:55:09;;;;;;;;;0.00;0.00;;;;;33.75;50.65;98273.47;6243660;23;8801;-72
2021/07/19 05:57:38;;;;;;;;;0.00;0.00;;;;;33.73;51.05;98265.72;6244389;23;8859;-71
2021/07/19 06:00:13;;;;;;;;;0.00;0.00;;;;;33.72;49.60;98275.13;6243013;23;8793;-72
2021/07/19 06:02:44;;;;;;;;;1.20;1.20;;;;;33.69;50.06;98268.53;6241641;23;8805;-72
2021/07/19 06:05:14;;;;;;;;;0.00;0.00;;;;;33.51;49.22;98240.91;6241697;23;8793;-73
2021/07/19 06:08:08;;;;;;;;;0.00;0.00;;;;;33.61;50.01;98266.44;6244183;23;8753;-71
2021/07/19 06:11:00;;;;;;;;;0.00;0.00;;;;;33.55;50.13;98266.19;6244354;23;8757;-71
2021/07/19 06:13:29;;;;;;;;;0.00;0.00;;;;;33.42;49.91;98259.16;6246238;23;8817;-75
2021/07/19 06:15:58;;;;;;;;;0.00;0.00;;;;;33.38;50.62;98261.97;6245855;23;8785;-74
2021/07/19 06:18:26;;;;;;;;;0.00;0.00;;;;;33.23;50.88;98244.38;6245612;23;8800;-74
2021/07/19 06:20:56;;;;;;;;;0.00;0.00;;;;;33.13;50.36;98229.03;6245927;23;8859;-80
2021/07/19 06:23:25;;;;;;;;;0.00;0.00;;;;;33.28;49.77;98260.25;6245672;23;8870;-71
2021/07/19 06:25:54;;;;;;;;;0.00;0.00;;;;;33.25;50.56;98250.19;6246117;23;8864;-70
2021/07/19 06:28:22;;;;;;;;;0.00;0.00;;;;;33.15;49.43;98234.81;6245597;23;8793;-73
2021/07/19 06:30:53;;;;;;;;;0.00;0.00;;;;;33.16;49.27;98236.38;6244052;23;8875;-76
2021/07/19 06:33:23;;;;;;;;;0.00;0.00;;;;;33.13;50.52;98237.22;6244674;23;8800;-72
2021/07/19 06:35:52;;;;;;;;;0.00;0.00;;;;;33.13;50.83;98238.00;6244972;23;8793;-72
2021/07/19 06:38:20;;;;;;;;;0.00;0.00;;;;;32.97;50.63;98216.16;6244891;23;8773;-72
2021/07/19 06:40:48;;;;;;;;;0.00;0.00;;;;;32.83;49.75;98206.34;6245283;23;8797;-72
2021/07/19 06:43:40;;;;;;;;;0.00;0.00;;;;;33.00;51.11;98221.53;6245034;23;8768;-72
2021/07/19 06:46:12;;;;;;;;;0.00;0.00;;;;;32.90;50.44;98214.38;6244839;23;8886;-73
2021/07/19 06:48:43;;;;;;;;;0.00;0.00;;;;;33.01;50.98;98220.34;6245319;23;8803;-71
2021/07/19 06:51:13;;;;;;;;;0.00;0.00;;;;;33.02;50.25;98204.69;6243797;23;8817;-72
2021/07/19 06:53:42;;;;;;;;;0.20;0.20;;;;;33.18;51.32;98206.63;6245147;23;8789;-72
2021/07/19 06:56:11;;;;;;;;;0.00;0.00;;;;;33.18;49.39;98195.69;6244900;23;8781;-72
2021/07/19 06:58:40;;;;;;;;;0.00;0.00;;;;;33.31;50.85;98208.25;6243813;23;8785;-72
2021/07/19 07:01:09;;;;;;;;;0.00;0.00;;;;;33.33;51.16;98200.38;6243860;23;8789;-72
2021/07/19 07:03:38;;;;;;;;;0.00;0.00;;;;;33.35;50.71;98202.69;6244487;23;8801;-72
2021/07/19 07:06:26;;;;;;;;;0.00;0.00;;;;;33.33;51.09;98191.41;6244751;23;8823;-72
2021/07/19 07:09:07;;;;;;;;;0.40;0.40;;;;;33.25;50.93;98177.16;6244826;23;8816;-72
2021/07/19 07:11:39;;;;;;;;;0.00;0.00;;;;;32.97;50.66;98140.41;6244718;23;8906;-73
2021/07/19 07:14:08;;;;;;;;;0.00;0.00;;;;;33.18;50.24;98165.63;6244739;23;8785;-71
2021/07/19 07:16:38;;;;;;;;;0.00;0.00;;;;;33.03;48.90;98138.69;6243077;23;8824;-72
2021/07/19 07:19:16;;;;;;;;;0.00;0.00;;;;;33.08;49.70;98140.91;6243357;23;8915;-72
2021/07/19 07:22:33;;;;;;;;;0.00;0.00;;;;;33.04;50.62;98142.97;6243185;23;8761;-75
2021/07/19 07:25:03;;;;;;;;;0.00;0.00;;;;;33.02;50.19;98139.13;6243278;23;8793;-74
2021/07/19 07:28:11;;;;;;;;;0.00;0.00;;;;;33.15;50.31;98137.22;6243471;23;8859;-82
2021/07/19 07:30:41;;;;;;;;;0.00;0.00;;;;;33.30;50.21;98126.66;6243167;23;8817;-72
2021/07/19 07:33:12;;;;;;;;;0.20;0.20;;;;;33.31;49.11;98109.84;6243537;23;8894;-73
2021/07/19 07:35:46;;;;;;;;;0.00;0.00;;;;;33.50;49.70;98121.78;6243917;23;8801;-74
2021/07/19 07:38:16;;;;;;;;;0.00;0.00;;;;;33.47;48.62;98098.06;6217842;23;8820;-74
2021/07/19 07:40:48;;;;;;;;;0.00;0.00;;;;;33.72;48.92;98119.97;6239906;23;8804;-76
2021/07/19 07:43:24;;;;;;;;;0.00;0.00;;;;;33.79;48.30;98115.47;6243517;23;8781;-73
2021/07/19 07:45:53;;;;;;;;;0.40;0.40;;;;;33.85;47.43;98109.03;6243905;23;8874;-74
2021/07/19 07:48:24;;;;;;;;;0.00;0.00;;;;;33.86;47.81;98109.78;6218259;23;8875;-74
2021/07/19 07:50:52;;;;;;;;;0.00;0.00;;;;;33.94;47.36;98105.63;6242146;23;8785;-73
2021/07/19 07:53:23;;;;;;;;;0.00;0.00;;;;;33.83;46.60;98080.56;6243505;23;8871;-75
2021/07/19 07:55:57;;;;;;;;;0.80;0.80;;;;;33.94;48.10;98092.72;6217330;23;8797;-76
2021/07/19 07:58:27;;;;;;;;;0.00;0.00;;;;;33.81;48.41;98070.06;6242944;23;8797;-75
2021/07/19 08:01:09;;;;;;;;;0.00;0.00;;;;;33.70;48.49;98050.47;6238771;23;8921;-74
2021/07/19 08:03:50;;;;;;;;;0.00;0.00;;;;;33.94;48.42;98061.84;6244683;23;8793;-72
2021/07/19 08:06:19;;;;;;;;;0.00;0.00;;;;;33.95;48.58;98063.38;6243981;23;8785;-73
2021/07/19 08:09:17;;;;;;;;;0.00;0.00;;;;;33.61;49.25;98017.56;6225693;23;8920;-73
2021/07/19 08:11:48;;;;;;;;;0.80;0.80;;;;;33.95;49.05;98064.13;6243620;23;8823;-72
2021/07/19 08:14:16;;;;;;;;;0.00;0.00;;;;;34.02;48.72;98068.63;6243757;23;8789;-74
2021/07/19 08:16:47;;;;;;;;;0.00;0.00;;;;;33.97;46.42;98056.25;6244280;23;8820;-72
2021/07/19 08:19:18;;;;;;;;;0.00;0.00;;;;;34.07;47.95;98076.28;6244040;23;8908;-72
2021/07/19 08:21:52;;;;;;;;;0.00;0.00;;;;;34.00;48.56;98079.25;6244124;23;8801;-74
2021/07/19 08:24:31;;;;;;;;;0.00;0.00;;;;;33.96;48.57;98079.34;6244392;23;8785;-72
2021/07/19 08:29:55;;;;;;;;;0.00;0.00;;;;;33.61;47.88;98047.63;6212894;23;8877;-73
2021/07/19 08:32:31;;;;;;;;;0.20;0.20;;;;;33.71;48.43;98065.69;6211314;23;8893;-74
2021/07/19 08:35:00;;;;;;;;;0.20;0.20;;;;;33.43;48.48;98028.28;6213055;23;8854;-74
2021/07/19 08:38:13;;;;;;;;;0.00;0.00;;;;;33.41;48.98;98042.38;6212301;23;8807;-73
2021/07/19 08:41:12;;;;;;;;;0.00;0.00;;;;;33.40;48.63;98021.72;6227793;22;9552;-74
2021/07/19 08:44:05;;;;;;;;;0.00;0.00;;;;;33.70;48.79;98062.19;6272555;22;8846;-74
2021/07/19 08:46:35;;;;;;;;;0.00;0.00;;;;;33.60;48.53;98046.09;6272456;22;8872;-74
2021/07/19 08:49:05;;;;;;;;;0.00;0.00;;;;;33.64;48.62;98053.00;6272856;22;8783;-75
2021/07/19 08:51:39;;;;;;;;;0.00;0.00;;;;;33.66;48.52;98047.09;6274389;22;8821;-75
2021/07/19 08:54:13;;;;;;;;;0.00;0.00;;;;;33.84;48.89;98065.69;6274040;22;8876;-74
2021/07/19 08:56:43;;;;;;;;;0.00;0.00;;;;;33.79;47.82;98049.81;6273379;22;8829;-75
2021/07/19 08:59:17;;;;;;;;;0.00;0.00;;;;;33.95;47.11;98075.09;6271905;22;8929;-74
2021/07/19 09:01:47;;;;;;;;;0.00;0.00;;;;;33.93;48.24;98071.25;6273566;22;8799;-74
2021/07/19 09:04:21;;;;;;;;;0.00;0.00;;;;;33.98;47.98;98073.44;6274311;22;8810;-74
2021/07/19 09:06:51;;;;;;;;;0.00;0.00;;;;;33.94;47.36;98061.84;6275133;22;8901;-74
2021/07/19 09:09:29;;;;;;;;;0.00;0.00;;;;;33.91;46.50;98062.72;6272080;22;8802;-73
2021/07/19 09:12:00;;;;;;;;;0.00;0.00;;;;;33.83;47.83;98073.13;6274573;22;8830;-73
2021/07/19 09:14:31;;;;;;;;;0.00;0.00;;;;;33.74;46.80;98070.28;6275632;22;8771;-73
2021/07/19 09:17:02;;;;;;;;;0.00;0.00;;;;;33.57;45.92;98072.34;6273571;22;8868;-73
2021/07/19 09:19:31;;;;;;;;;0.00;0.00;;;;;33.51;44.76;98076.84;6273129;22;9535;-73
2021/07/19 09:22:02;;;;;;;;;0.00;0.00;;;;;33.36;45.72;98062.81;6273141;22;8825;-74
2021/07/19 09:24:36;;;;;;;;;0.00;0.00;;;;;33.40;46.37;98070.91;6274033;22;8787;-73
2021/07/19 09:27:06;;;;;;;;;0.00;0.00;;;;;33.36;45.26;98071.03;6249772;22;9544;-74
2021/07/19 09:29:38;;;;;;;;;0.00;0.00;;;;;33.20;47.00;98051.19;6276223;22;8872;-74
2021/07/19 09:32:07;;;;;;;;;0.00;0.00;;;;;33.27;46.61;98070.09;6273649;22;8857;-72
2021/07/19 09:34:37;;;;;;;;;0.00;0.00;;;;;33.18;45.99;98073.47;6246505;22;8791;-73
2021/07/19 09:37:13;;;;;;;;;0.00;0.00;;;;;33.05;45.85;98062.50;6274020;22;8807;-72
2021/07/19 09:39:43;;;;;;;;;0.00;0.00;;;;;33.03;45.90;98058.69;6274180;22;8806;-73
2021/07/19 09:42:17;;;;;;;;;0.00;0.00;;;;;32.96;45.98;98054.19;6243697;23;8806;-73
2021/07/19 09:44:59;;;;;;;;;0.00;0.00;;;;;33.07;46.16;98071.03;6246720;23;8809;-74
2021/07/19 09:47:34;;;;;;;;;0.00;0.00;;;;;33.10;45.92;98068.66;6246316;23;8836;-72
2021/07/19 09:50:15;;;;;;;;;0.00;0.00;;;;;32.93;49.00;98046.84;6244883;23;8817;-73
2021/07/19 09:52:45;;;;;;;;;0.00;0.00;;;;;32.90;47.68;98045.00;6219778;23;8906;-73
2021/07/19 09:55:25;;;;;;;;;0.00;0.00;;;;;32.99;47.80;98056.06;6245517;23;8801;-73
2021/07/19 09:57:54;;;;;;;;;0.00;0.00;;;;;32.87;47.08;98031.44;6245517;23;8986;-73
2021/07/19 10:00:24;;;;;;;;;0.00;0.00;;;;;33.06;46.52;98061.31;6246404;23;8887;-72
2021/07/19 10:02:54;;;;;;;;;0.00;0.00;;;;;33.05;46.02;98062.50;6247406;23;8809;-72
2021/07/19 10:05:28;;;;;;;;;0.00;0.00;;;;;32.86;46.89;98029.91;6247658;23;8825;-72
2021/07/19 10:08:01;;;;;;;;;0.00;0.00;;;;;32.90;46.91;98041.50;6245773;23;8805;-72
2021/07/19 10:10:41;;;;;;;;;0.00;0.00;;;;;33.08;48.09;98066.34;6245637;23;8927;-72
2021/07/19 10:13:10;;;;;;;;;0.20;0.20;;;;;33.11;48.00;98068.22;6245984;23;9530;-72
2021/07/19 10:15:40;;;;;;;;;0.00;0.00;;;;;33.13;47.79;98075.97;6245258;23;8797;-72
2021/07/19 10:18:10;;;;;;;;;0.00;0.00;;;;;33.15;47.37;98066.16;6245219;23;8801;-72
2021/07/19 10:20:40;;;;;;;;;0.00;0.00;;;;;33.05;48.19;98057.06;6246094;23;8851;-73
2021/07/19 10:23:13;;;;;;;;;0.00;0.00;;;;;33.20;46.71;98078.50;6245870;23;8883;-72
2021/07/19 10:25:44;;;;;;;;;0.00;0.00;;;;;33.17;46.04;98069.22;6245073;23;8793;-72
2021/07/19 10:28:15;;;;;;;;;0.00;0.00;;;;;33.24;46.81;98076.44;6245104;23;8833;-72
2021/07/19 10:30:43;;;;;;;;;0.00;0.00;;;;;33.03;45.50;98043.06;6244299;23;8821;-72
2021/07/19 10:33:12;;;;;;;;;0.40;0.40;;;;;33.04;45.75;98046.56;6245097;23;8879;-72
2021/07/19 10:35:46;;;;;;;;;4.20;4.20;;;;;33.07;46.80;98053.88;6243332;23;8781;-72
2021/07/19 10:38:30;;;;;;;;;1.40;1.40;;;;;33.13;45.58;98063.09;6243368;23;8805;-72
2021/07/19 10:41:00;;;;;;;;;0.80;0.80;;;;;33.00;45.54;98054.84;6227543;22;8858;-72
2021/07/19 10:43:29;;;;;;;;;0.00;0.00;;;;;33.09;46.41;98087.00;6274956;22;8788;-72
2021/07/19 10:46:12;;;;;;;;;0.00;0.00;;;;;32.98;45.27;98084.56;6274873;22;8796;-72
2021/07/19 10:48:43;;;;;;;;;0.00;0.00;;;;;32.97;45.42;98106.88;6275502;22;8845;-72
2021/07/19 10:51:21;;;;;;;;;0.00;0.00;;;;;32.88;46.46;98096.56;6275517;22;8780;-72
2021/07/19 10:53:52;;;;;;;;;0.00;0.00;;;;;32.78;45.70;98103.06;6247448;22;8858;-72
2021/07/19 10:56:28;;;;;;;;;0.00;0.00;;;;;32.57;46.29;98090.72;6275663;22;8804;-72
2021/07/19 10:58:57;;;;;;;;;0.00;0.00;;;;;32.56;46.00;98107.53;6275397;22;8795;-72
2021/07/19 11:01:29;;;;;;;;;0.00;0.00;;;;;32.41;46.30;98110.63;6276376;22;8857;-72
2021/07/19 11:04:13;;;;;;;;;0.00;0.00;;;;;32.25;46.57;98107.16;6276379;22;8830;-72
2021/07/19 11:06:48;;;;;;;;;0.00;0.00;;;;;32.14;46.95;98103.88;6276709;22;8826;-72
2021/07/19 11:09:21;;;;;;;;;0.00;0.00;;;;;32.13;47.27;98121.44;6276242;22;8773;-72
2021/07/19 11:11:49;;;;;;;;;0.00;0.00;;;;;32.02;47.43;98121.69;6276412;22;8760;-72
2021/07/19 11:14:21;;;;;;;;;0.00;0.00;;;;;31.74;47.71;98101.28;6277050;22;8781;-72
2021/07/19 11:16:54;;;;;;;;;0.00;0.00;;;;;31.74;47.29;98115.69;6249904;22;8874;-72
2021/07/19 11:19:35;;;;;;;;;0.00;0.00;;;;;31.74;48.07;98128.56;6276508;22;8847;-72
2021/07/19 11:22:10;;;;;;;;;0.00;0.00;;;;;31.62;50.13;98124.50;6276281;22;8788;-72
2021/07/19 11:24:44;;;;;;;;;0.00;0.00;;;;;31.59;48.29;98136.25;6276355;22;8788;-72
2021/07/19 11:27:13;;;;;;;;;0.00;0.00;;;;;31.53;49.00;98124.28;6276336;22;8849;-72
2021/07/19 11:29:43;;;;;;;;;0.00;0.00;;;;;31.43;48.34;98128.00;6276211;22;8773;-72
2021/07/19 11:32:27;;;;;;;;;0.00;0.00;;;;;31.45;48.19;98139.25;6276630;22;8765;-72
2021/07/19 11:35:22;;;;;;;;;0.00;0.00;;;;;31.40;49.24;98142.47;6276161;22;8772;-72
2021/07/19 11:37:56;;;;;;;;;0.00;0.00;;;;;31.36;48.67;98147.22;6276470;22;8808;-72
2021/07/19 11:40:37;;;;;;;;;0.00;0.00;;;;;31.30;48.79;98148.91;6275985;22;8807;-72
2021/07/19 11:43:15;;;;;;;;;0.00;0.00;;;;;31.27;48.90;98158.69;6276285;22;8856;-72
2021/07/19 11:45:48;;;;;;;;;0.00;0.00;;;;;31.23;49.88;98154.50;6276979;22;8791;-72
2021/07/19 11:48:24;;;;;;;;;0.00;0.00;;;;;31.19;49.33;98167.44;6276052;22;8787;-72
2021/07/19 11:50:57;;;;;;;;;0.00;0.00;;;;;31.19;50.00;98170.94;6276432;22;8787;-72
2021/07/19 11:53:25;;;;;;;;;0.00;0.00;;;;;31.14;49.77;98185.81;6275932;22;8787;-72
2021/07/19 11:55:54;;;;;;;;;0.00;0.00;;;;;31.12;50.23;98193.59;6276336;22;8807;-72
2021/07/19 11:58:23;;;;;;;;;0.00;0.00;;;;;31.10;50.01;98195.22;6275997;22;8799;-72
2021/07/19 12:00:54;;;;;;;;;0.00;0.00;;;;;31.09;49.60;98205.34;6275789;22;8791;-72
2021/07/19 12:03:23;;;;;;;;;0.00;0.00;;;;;31.09;50.72;98202.63;6275949;22;8825;-72
2021/07/19 12:05:58;;;;;;;;;0.00;0.00;;;;;31.06;50.13;98210.84;6276835;22;8803;-72
2021/07/19 12:08:36;;;;;;;;;0.00;0.00;;;;;31.05;50.76;98209.31;6275977;22;8791;-72
2021/07/19 12:11:07;;;;;;;;;0.00;0.00;;;;;31.02;50.23;98205.47;6276183;22;8864;-72
2021/07/19 12:13:41;;;;;;;;;0.00;0.00;;;;;30.96;50.45;98198.19;6275752;22;8783;-72
2021/07/19 12:16:11;;;;;;;;;0.00;0.00;;;;;30.99;50.03;98211.75;6275864;22;8799;-72